createdAt,value
2023-05-22T00:01:56.708Z,20.50
2023-05-22T00:04:23.907Z,20.50
2023-05-22T00:06:50.919Z,20.50
2023-05-22T00:09:17.962Z,20.50
2023-05-22T00:11:45.111Z,20.40
2023-05-22T00:14:13.750Z,20.30
2023-05-22T00:16:41.408Z,20.30
2023-05-22T00:19:13.440Z,20.30
2023-05-22T00:21:40.893Z,20.20
2023-05-22T00:24:08.368Z,20.20
2023-05-22T00:26:35.420Z,20.20
2023-05-22T00:29:02.460Z,20.20
2023-05-22T00:31:29.469Z,20.20
2023-05-22T00:33:56.491Z,20.10
2023-05-22T00:36:23.875Z,20.10
2023-05-22T00:38:51.087Z,20.00
2023-05-22T00:41:18.107Z,20.00
2023-05-22T00:43:47.616Z,20.00
2023-05-22T00:46:15.209Z,20.00
2023-05-22T00:48:42.243Z,19.90
2023-05-22T00:51:09.412Z,19.90
2023-05-22T00:53:37.194Z,19.80
2023-05-22T00:56:05.060Z,19.80
2023-05-22T00:58:32.623Z,19.80
2023-05-22T01:00:59.668Z,19.90
2023-05-22T01:03:28.429Z,19.90
2023-05-22T01:05:56.110Z,19.90
2023-05-22T01:08:23.165Z,19.90
2023-05-22T01:11:15.245Z,19.90
2023-05-22T01:14:04.115Z,19.90
2023-05-22T01:16:50.215Z,19.90
2023-05-22T01:19:31.109Z,19.90
2023-05-22T01:22:21.604Z,19.90
2023-05-22T01:25:09.754Z,19.90
2023-05-22T01:27:42.664Z,19.90
2023-05-22T01:30:25.294Z,19.90
2023-05-22T01:32:57.405Z,19.80
2023-05-22T01:35:25.258Z,19.80
2023-05-22T01:37:53.416Z,19.70
2023-05-22T01:40:21.124Z,19.70
2023-05-22T01:42:48.349Z,19.70
2023-05-22T01:45:15.331Z,19.70
2023-05-22T01:47:42.455Z,19.70
2023-05-22T01:50:09.968Z,19.60
2023-05-22T01:52:53.528Z,19.70
2023-05-22T01:55:29.286Z,19.70
2023-05-22T01:58:33.455Z,19.70
2023-05-22T02:01:02.205Z,19.70
2023-05-22T02:03:35.063Z,19.70
2023-05-22T02:06:08.981Z,19.70
2023-05-22T02:08:39.584Z,19.70
2023-05-22T02:11:08.115Z,19.70
2023-05-22T02:13:35.628Z,19.70
2023-05-22T02:16:04.095Z,19.80
2023-05-22T02:18:31.614Z,19.80
2023-05-22T02:20:59.164Z,19.80
2023-05-22T02:23:29.343Z,19.80
2023-05-22T02:25:57.014Z,19.80
2023-05-22T02:28:24.219Z,19.80
2023-05-22T02:30:51.384Z,19.80
2023-05-22T02:33:18.704Z,19.80
2023-05-22T02:35:46.198Z,19.80
2023-05-22T02:38:13.306Z,19.80
2023-05-22T02:40:40.702Z,19.80
2023-05-22T02:43:08.149Z,19.80
2023-05-22T02:45:36.203Z,19.80
2023-05-22T02:48:03.899Z,19.80
2023-05-22T02:50:32.257Z,19.80
2023-05-22T02:52:59.391Z,19.80
2023-05-22T02:55:26.436Z,19.80
2023-05-22T02:57:53.454Z,19.80
2023-05-22T03:00:22.064Z,19.80
2023-05-22T03:02:49.276Z,19.80
2023-05-22T03:05:17.656Z,19.80
2023-05-22T03:07:48.092Z,19.80
2023-05-22T03:10:15.634Z,19.80
2023-05-22T03:12:42.716Z,19.80
2023-05-22T03:15:11.153Z,19.80
2023-05-22T03:17:39.901Z,19.70
2023-05-22T03:20:08.669Z,19.80
2023-05-22T03:22:35.872Z,19.70
2023-05-22T03:25:04.006Z,19.70
2023-05-22T03:27:31.204Z,19.70
2023-05-22T03:29:58.246Z,19.70
2023-05-22T03:32:26.029Z,19.60
2023-05-22T03:34:53.044Z,19.50
2023-05-22T03:37:20.136Z,19.40
2023-05-22T03:39:47.485Z,19.40
2023-05-22T03:42:29.883Z,19.30
2023-05-22T03:44:57.712Z,19.30
2023-05-22T03:47:26.127Z,19.30
2023-05-22T03:49:53.120Z,19.20
2023-05-22T03:52:22.721Z,19.20
2023-05-22T03:54:49.672Z,19.20
2023-05-22T03:57:19.841Z,19.20
2023-05-22T03:59:46.979Z,19.20
2023-05-22T04:02:16.680Z,19.20
2023-05-22T04:04:46.200Z,19.20
2023-05-22T04:07:13.503Z,19.20
2023-05-22T04:09:41.318Z,19.20
2023-05-22T04:12:08.763Z,19.20
2023-05-22T04:14:35.840Z,19.10
2023-05-22T04:17:02.840Z,19.00
2023-05-22T04:19:30.290Z,19.00
2023-05-22T04:21:58.832Z,18.90
2023-05-22T04:24:25.811Z,18.90
2023-05-22T04:26:52.802Z,18.90
2023-05-22T04:29:22.092Z,18.80
2023-05-22T04:31:49.100Z,18.80
2023-05-22T04:34:16.980Z,18.80
2023-05-22T04:36:45.310Z,18.70
2023-05-22T04:39:13.945Z,18.70
2023-05-22T04:41:41.427Z,18.70
2023-05-22T04:44:08.649Z,18.70
2023-05-22T04:46:36.116Z,18.70
2023-05-22T04:49:03.336Z,18.80
2023-05-22T04:51:35.002Z,18.80
2023-05-22T04:54:02.091Z,18.80
2023-05-22T04:56:36.107Z,18.80
2023-05-22T04:59:05.475Z,18.90
2023-05-22T05:01:35.198Z,18.90
2023-05-22T05:04:03.909Z,18.90
2023-05-22T05:06:31.075Z,18.90
2023-05-22T05:08:58.141Z,18.90
2023-05-22T05:11:25.987Z,18.90
2023-05-22T05:13:53.035Z,18.80
2023-05-22T05:16:20.065Z,18.80
2023-05-22T05:18:47.423Z,18.90
2023-05-22T05:21:14.577Z,18.90
2023-05-22T05:23:42.458Z,18.90
2023-05-22T05:26:09.611Z,18.90
2023-05-22T05:28:37.535Z,18.90
2023-05-22T05:31:07.815Z,18.90
2023-05-22T05:33:53.217Z,18.90
2023-05-22T05:36:29.060Z,18.90
2023-05-22T05:38:58.433Z,19.00
2023-05-22T05:41:26.710Z,19.00
2023-05-22T05:44:01.260Z,19.00
2023-05-22T05:46:31.296Z,19.00
2023-05-22T05:48:58.628Z,19.00
2023-05-22T05:51:26.479Z,19.00
2023-05-22T05:53:53.736Z,19.00
2023-05-22T05:56:21.672Z,19.00
2023-05-22T05:58:49.108Z,19.00
2023-05-22T06:01:35.314Z,19.10
2023-05-22T06:04:04.257Z,19.10
2023-05-22T06:06:36.476Z,19.20
2023-05-22T06:09:26.258Z,19.20
2023-05-22T06:12:25.154Z,19.30
2023-05-22T06:14:52.140Z,19.30
2023-05-22T06:17:20.666Z,19.40
2023-05-22T06:19:48.650Z,19.40
2023-05-22T06:22:16.621Z,19.50
2023-05-22T06:24:46.226Z,19.60
2023-05-22T06:27:17.618Z,19.60
2023-05-22T06:29:44.872Z,19.70
2023-05-22T06:32:12.204Z,19.70
2023-05-22T06:34:41.159Z,19.80
2023-05-22T06:37:09.476Z,19.80
2023-05-22T06:39:40.802Z,19.80
2023-05-22T06:42:15.916Z,19.90
2023-05-22T06:45:19.840Z,19.90
2023-05-22T06:48:25.559Z,20.00
2023-05-22T06:51:10.937Z,20.10
2023-05-22T06:53:39.943Z,20.20
2023-05-22T06:56:12.897Z,20.30
2023-05-22T06:59:03.871Z,20.40
2023-05-22T07:01:51.884Z,20.60
2023-05-22T07:04:26.784Z,20.70
2023-05-22T07:07:01.138Z,20.80
2023-05-22T07:09:28.759Z,20.90
2023-05-22T07:11:55.924Z,21.00
2023-05-22T07:14:23.308Z,21.00
2023-05-22T07:16:51.252Z,21.10
2023-05-22T07:19:25.389Z,21.20
2023-05-22T07:21:54.441Z,21.20
2023-05-22T07:24:22.440Z,21.30
2023-05-22T07:26:50.553Z,21.40
2023-05-22T07:29:17.827Z,21.50
2023-05-22T07:31:48.339Z,21.60
2023-05-22T07:34:16.852Z,21.60
2023-05-22T07:36:45.190Z,21.70
2023-05-22T07:39:12.207Z,21.70
2023-05-22T07:41:41.167Z,21.70
2023-05-22T07:44:11.508Z,21.80
2023-05-22T07:46:38.985Z,21.80
2023-05-22T07:49:19.634Z,21.80
2023-05-22T07:51:47.298Z,21.80
2023-05-22T07:54:16.032Z,21.80
2023-05-22T07:56:46.069Z,21.80
2023-05-22T07:59:16.042Z,21.90
2023-05-22T08:01:43.140Z,21.90
2023-05-22T08:04:10.298Z,22.00
2023-05-22T08:06:37.416Z,22.00
2023-05-22T08:09:05.010Z,22.10
2023-05-22T08:11:33.993Z,22.10
2023-05-22T08:14:01.100Z,22.20
2023-05-22T08:16:28.073Z,22.20
2023-05-22T08:18:55.143Z,22.20
2023-05-22T08:21:22.178Z,22.20
2023-05-22T08:23:49.233Z,22.30
2023-05-22T08:26:19.251Z,22.40
2023-05-22T08:28:46.227Z,22.50
2023-05-22T08:31:14.927Z,22.50
2023-05-22T08:33:41.965Z,22.60
2023-05-22T08:36:08.925Z,22.60
2023-05-22T08:38:36.134Z,22.70
2023-05-22T08:41:03.979Z,22.70
2023-05-22T08:43:30.961Z,22.70
2023-05-22T08:46:04.157Z,22.70
2023-05-22T08:48:32.823Z,22.80
2023-05-22T08:51:07.765Z,22.80
2023-05-22T08:53:36.642Z,22.90
2023-05-22T08:56:06.843Z,23.00
2023-05-22T08:58:35.700Z,23.10
2023-05-22T09:01:04.900Z,23.10
2023-05-22T09:03:35.252Z,23.20
2023-05-22T09:06:04.582Z,23.30
2023-05-22T09:08:31.673Z,23.40
2023-05-22T09:10:58.657Z,23.50
2023-05-22T09:13:27.869Z,23.50
2023-05-22T09:15:59.544Z,23.60
2023-05-22T09:18:28.037Z,23.60
2023-05-22T09:20:57.652Z,23.60
2023-05-22T09:23:28.119Z,23.60
2023-05-22T09:25:56.787Z,23.60
2023-05-22T09:28:24.762Z,23.50
2023-05-22T09:30:53.344Z,23.50
2023-05-22T09:33:21.964Z,23.50
2023-05-22T09:35:52.108Z,23.50
2023-05-22T09:38:21.588Z,23.50
2023-05-22T09:40:55.977Z,23.40
2023-05-22T09:43:25.420Z,23.40
2023-05-22T09:46:01.908Z,23.40
2023-05-22T09:48:29.572Z,23.40
2023-05-22T09:50:59.750Z,23.40
2023-05-22T09:53:28.988Z,23.30
2023-05-22T09:56:01.643Z,23.30
2023-05-22T09:58:31.349Z,23.30
2023-05-22T10:00:59.611Z,23.30
2023-05-22T10:03:27.076Z,23.30
2023-05-22T10:05:58.952Z,23.30
2023-05-22T10:08:28.742Z,23.30
2023-05-22T10:10:56.081Z,23.40
2023-05-22T10:13:25.156Z,23.40
2023-05-22T10:15:53.273Z,23.40
2023-05-22T10:18:20.489Z,23.40
2023-05-22T10:20:48.354Z,23.50
2023-05-22T10:23:16.623Z,23.50
2023-05-22T10:25:45.622Z,23.70
2023-05-22T10:28:20.880Z,23.80
2023-05-22T10:31:26.767Z,23.80
2023-05-22T10:34:24.634Z,24.00
2023-05-22T10:37:13.139Z,24.10
2023-05-22T10:39:51.340Z,24.20
2023-05-22T10:42:18.339Z,24.20
2023-05-22T10:44:48.229Z,24.30
2023-05-22T10:47:15.237Z,24.30
2023-05-22T10:49:44.996Z,24.30
2023-05-22T10:52:14.637Z,24.30
2023-05-22T10:54:46.118Z,24.40
2023-05-22T10:57:18.747Z,24.40
2023-05-22T10:59:48.814Z,24.40
2023-05-22T11:02:29.352Z,24.40
2023-05-22T11:05:25.978Z,24.40
2023-05-22T11:07:52.986Z,24.40
2023-05-22T11:10:27.181Z,24.40
2023-05-22T11:13:11.699Z,24.30
2023-05-22T11:15:45.693Z,24.30
2023-05-22T11:18:14.523Z,24.20
2023-05-22T11:20:42.091Z,24.20
2023-05-22T11:23:11.140Z,24.30
2023-05-22T11:25:40.567Z,24.30
2023-05-22T11:28:07.936Z,24.30
2023-05-22T11:30:35.218Z,24.30
2023-05-22T11:33:02.762Z,24.30
2023-05-22T11:35:30.175Z,24.40
2023-05-22T11:37:57.247Z,24.40
2023-05-22T11:40:27.082Z,24.40
2023-05-22T11:42:54.225Z,24.50
2023-05-22T11:45:21.916Z,24.60
2023-05-22T11:47:49.717Z,24.70
2023-05-22T11:50:29.327Z,24.80
2023-05-22T11:53:02.813Z,24.80
2023-05-22T11:55:29.868Z,24.80
2023-05-22T11:57:58.558Z,24.90
2023-05-22T12:00:26.265Z,24.90
2023-05-22T12:02:54.573Z,25.00
2023-05-22T12:05:22.106Z,25.00
2023-05-22T12:07:49.108Z,25.10
2023-05-22T12:10:16.478Z,25.10
2023-05-22T12:12:44.646Z,25.20
2023-05-22T12:15:11.940Z,25.20
2023-05-22T12:17:40.236Z,25.20
2023-05-22T12:20:07.481Z,25.30
2023-05-22T12:22:40.649Z,25.30
2023-05-22T12:25:15.361Z,25.40
2023-05-22T12:27:45.081Z,25.40
2023-05-22T12:30:15.877Z,25.50
2023-05-22T12:32:50.697Z,25.50
2023-05-22T12:35:18.677Z,25.60
2023-05-22T12:37:50.232Z,25.70
2023-05-22T12:40:17.987Z,25.60
2023-05-22T12:42:45.170Z,25.70
2023-05-22T12:45:13.309Z,25.80
2023-05-22T12:47:40.428Z,25.80
2023-05-22T12:50:08.287Z,25.90
2023-05-22T12:52:36.220Z,25.90
2023-05-22T12:55:03.474Z,26.00
2023-05-22T12:57:30.469Z,26.00
2023-05-22T12:59:57.401Z,26.00
2023-05-22T13:02:24.527Z,26.00
2023-05-22T13:04:51.581Z,26.10
2023-05-22T13:07:18.608Z,26.10
2023-05-22T13:09:45.666Z,26.10
2023-05-22T13:12:12.821Z,26.10
2023-05-22T13:14:40.610Z,26.10
2023-05-22T13:17:08.047Z,26.20
2023-05-22T13:19:35.215Z,26.20
2023-05-22T13:22:02.329Z,26.20
2023-05-22T13:24:30.421Z,26.20
2023-05-22T13:26:57.513Z,26.30
2023-05-22T13:29:24.533Z,26.30
2023-05-22T13:31:51.544Z,26.30
2023-05-22T13:34:18.781Z,26.40
2023-05-22T13:36:46.577Z,26.40
2023-05-22T13:39:13.617Z,26.50
2023-05-22T13:41:40.817Z,26.50
2023-05-22T13:44:07.781Z,26.50
2023-05-22T13:46:34.833Z,26.50
2023-05-22T13:49:01.769Z,26.60
2023-05-22T13:51:28.768Z,26.60
2023-05-22T13:53:55.862Z,26.60
2023-05-22T13:56:23.546Z,26.60
2023-05-22T13:58:50.528Z,26.70
2023-05-22T14:01:20.106Z,26.70
2023-05-22T14:03:49.772Z,26.80
2023-05-22T14:06:16.789Z,26.80
2023-05-22T14:08:44.000Z,26.80
2023-05-22T14:11:11.264Z,26.80
2023-05-22T14:13:38.302Z,26.80
2023-05-22T14:16:05.496Z,26.90
2023-05-22T14:18:32.447Z,27.00
2023-05-22T14:20:59.503Z,27.10
2023-05-22T14:23:26.470Z,27.10
2023-05-22T14:25:53.463Z,27.20
2023-05-22T14:28:20.496Z,27.40
2023-05-22T14:30:47.639Z,27.50
2023-05-22T14:33:14.814Z,27.60
2023-05-22T14:35:41.965Z,27.60
2023-05-22T14:38:09.190Z,27.80
2023-05-22T14:40:36.192Z,27.90
2023-05-22T14:43:03.206Z,27.90
2023-05-22T14:45:30.255Z,28.00
2023-05-22T14:47:57.289Z,28.20
2023-05-22T14:50:24.291Z,28.40
2023-05-22T14:52:51.607Z,28.50
2023-05-22T14:55:18.898Z,28.50
2023-05-22T14:57:46.168Z,28.60
2023-05-22T15:00:14.296Z,28.70
2023-05-22T15:02:41.331Z,28.90
2023-05-22T15:05:09.757Z,29.00
2023-05-22T15:07:44.125Z,29.20
2023-05-22T15:10:13.094Z,29.30
2023-05-22T15:12:40.242Z,29.60
2023-05-22T15:15:07.859Z,29.60
2023-05-22T15:17:35.240Z,29.80
2023-05-22T15:20:02.829Z,30.00
2023-05-22T15:22:29.773Z,30.30
2023-05-22T15:25:07.928Z,30.80
2023-05-22T15:27:35.867Z,31.30
2023-05-22T15:30:04.081Z,31.80
2023-05-22T15:32:33.207Z,32.30
2023-05-22T15:35:00.502Z,32.70
2023-05-22T15:37:29.175Z,33.20
2023-05-22T15:39:57.840Z,33.50
2023-05-22T15:42:24.820Z,34.00
2023-05-22T15:44:51.966Z,34.50
2023-05-22T15:47:18.930Z,35.10
2023-05-22T15:49:45.973Z,35.40
2023-05-22T15:52:13.006Z,35.80
2023-05-22T15:54:40.033Z,36.30
2023-05-22T15:57:07.110Z,36.70
2023-05-22T15:59:34.178Z,37.10
2023-05-22T16:02:01.166Z,37.50
2023-05-22T16:04:28.253Z,37.70
2023-05-22T16:06:55.226Z,37.80
2023-05-22T16:09:22.215Z,37.60
2023-05-22T16:11:49.308Z,37.30
2023-05-22T16:14:16.331Z,37.00
2023-05-22T16:16:43.830Z,36.60
2023-05-22T16:19:11.663Z,36.10
2023-05-22T16:21:38.964Z,35.60
2023-05-22T16:24:07.021Z,35.10
2023-05-22T16:26:34.229Z,34.70
2023-05-22T16:29:01.225Z,34.30
2023-05-22T16:31:29.899Z,33.90
2023-05-22T16:33:56.926Z,33.60
2023-05-22T16:36:25.182Z,33.30
2023-05-22T16:38:54.085Z,33.20
2023-05-22T16:41:21.094Z,33.10
2023-05-22T16:43:48.127Z,33.10
2023-05-22T16:46:15.674Z,33.00
2023-05-22T16:48:42.679Z,32.60
2023-05-22T16:51:11.366Z,32.30
2023-05-22T16:53:40.671Z,32.20
2023-05-22T16:56:07.910Z,31.90
2023-05-22T16:58:34.931Z,31.70
2023-05-22T17:01:02.090Z,31.60
2023-05-22T17:03:30.534Z,31.50
2023-05-22T17:05:57.836Z,31.40
2023-05-22T17:08:28.171Z,31.40
2023-05-22T17:10:56.204Z,31.40
2023-05-22T17:13:23.696Z,31.50
2023-05-22T17:15:51.367Z,31.60
2023-05-22T17:18:22.373Z,31.70
2023-05-22T17:20:50.372Z,31.70
2023-05-22T17:23:17.956Z,31.80
2023-05-22T17:25:46.694Z,31.80
2023-05-22T17:28:14.726Z,31.90
2023-05-22T17:30:44.056Z,32.00
2023-05-22T17:33:12.216Z,32.10
2023-05-22T17:35:39.666Z,32.20
2023-05-22T17:38:08.525Z,32.30
2023-05-22T17:40:44.054Z,32.20
2023-05-22T17:43:12.164Z,32.00
2023-05-22T17:45:39.254Z,31.80
2023-05-22T17:48:07.722Z,31.60
2023-05-22T17:50:34.850Z,31.30
2023-05-22T17:53:01.855Z,31.00
2023-05-22T17:55:28.859Z,30.70
2023-05-22T17:57:56.185Z,30.50
2023-05-22T18:00:23.402Z,30.20
2023-05-22T18:02:50.724Z,30.00
2023-05-22T18:05:17.948Z,29.80
2023-05-22T18:07:44.892Z,29.60
2023-05-22T18:10:11.836Z,29.50
2023-05-22T18:12:38.923Z,29.30
2023-05-22T18:15:09.540Z,29.10
2023-05-22T18:17:36.662Z,29.00
2023-05-22T18:20:07.377Z,28.80
2023-05-22T18:22:37.152Z,28.60
2023-05-22T18:25:04.881Z,28.50
2023-05-22T18:27:39.344Z,28.40
2023-05-22T18:30:07.622Z,28.30
2023-05-22T18:32:34.893Z,28.20
2023-05-22T18:35:04.698Z,28.10
2023-05-22T18:37:32.198Z,28.00
2023-05-22T18:39:59.187Z,27.80
2023-05-22T18:42:26.343Z,27.70
2023-05-22T18:44:53.407Z,27.60
2023-05-22T18:47:20.579Z,27.50
2023-05-22T18:49:47.584Z,27.40
2023-05-22T18:52:14.611Z,27.30
2023-05-22T18:54:41.567Z,27.20
2023-05-22T18:57:08.560Z,27.20
2023-05-22T18:59:36.774Z,27.10
2023-05-22T19:02:03.789Z,27.00
2023-05-22T19:04:33.191Z,26.90
2023-05-22T19:07:00.356Z,26.90
2023-05-22T19:09:27.382Z,26.80
2023-05-22T19:11:54.380Z,26.70
2023-05-22T19:14:21.432Z,26.60
2023-05-22T19:16:48.439Z,26.60
2023-05-22T19:19:15.615Z,26.50
2023-05-22T19:21:42.707Z,26.50
2023-05-22T19:24:09.884Z,26.50
2023-05-22T19:26:36.892Z,26.40
2023-05-22T19:29:04.033Z,26.40
2023-05-22T19:31:31.230Z,26.30
2023-05-22T19:33:58.326Z,26.30
2023-05-22T19:36:25.479Z,26.20
2023-05-22T19:38:53.688Z,26.20
2023-05-22T19:41:22.973Z,26.10
2023-05-22T19:43:51.817Z,26.10
2023-05-22T19:46:18.997Z,26.10
2023-05-22T19:48:46.474Z,26.00
2023-05-22T19:51:13.547Z,25.90
2023-05-22T19:53:41.508Z,25.90
2023-05-22T19:56:08.693Z,25.80
2023-05-22T19:58:35.755Z,25.80
2023-05-22T20:01:02.831Z,25.70
2023-05-22T20:03:30.166Z,25.70
2023-05-22T20:05:57.297Z,25.60
2023-05-22T20:08:25.437Z,25.60
2023-05-22T20:11:01.885Z,25.50
2023-05-22T20:13:29.010Z,25.50
2023-05-22T20:15:57.329Z,25.40
2023-05-22T20:18:24.469Z,25.30
2023-05-22T20:20:51.759Z,25.30
2023-05-22T20:23:18.818Z,25.30
2023-05-22T20:25:48.969Z,25.20
2023-05-22T20:28:16.103Z,25.20
2023-05-22T20:30:43.132Z,25.10
2023-05-22T20:33:11.834Z,25.10
2023-05-22T20:35:39.153Z,25.10
2023-05-22T20:38:08.791Z,25.10
2023-05-22T20:40:36.877Z,25.00
2023-05-22T20:43:04.242Z,25.00
2023-05-22T20:45:31.387Z,24.90
2023-05-22T20:47:58.537Z,24.90
2023-05-22T20:50:25.628Z,24.90
2023-05-22T20:52:52.850Z,24.80
2023-05-22T20:55:19.886Z,24.80
2023-05-22T20:57:46.922Z,24.70
2023-05-22T21:00:14.727Z,24.70
2023-05-22T21:02:41.909Z,24.60
2023-05-22T21:05:09.410Z,24.60
2023-05-22T21:07:36.523Z,24.60
2023-05-22T21:10:03.819Z,24.60
2023-05-22T21:12:31.536Z,24.60
2023-05-22T21:14:58.528Z,24.50
2023-05-22T21:17:26.011Z,24.50
2023-05-22T21:19:53.133Z,24.50
2023-05-22T21:22:20.415Z,24.50
2023-05-22T21:24:48.083Z,24.50
2023-05-22T21:27:15.135Z,24.50
2023-05-22T21:29:42.510Z,24.40
2023-05-22T21:32:09.510Z,24.40
2023-05-22T21:34:36.634Z,24.40
2023-05-22T21:37:03.603Z,24.30
2023-05-22T21:39:30.653Z,24.30
2023-05-22T21:41:58.016Z,24.30
2023-05-22T21:44:25.111Z,24.30
2023-05-22T21:46:52.194Z,24.20
2023-05-22T21:49:19.175Z,24.20
2023-05-22T21:51:46.147Z,24.20
2023-05-22T21:54:13.114Z,24.10
2023-05-22T21:56:40.139Z,24.00
2023-05-22T21:59:07.113Z,24.00
2023-05-22T22:01:34.270Z,24.00
2023-05-22T22:04:01.438Z,23.90
2023-05-22T22:06:28.591Z,23.90
2023-05-22T22:08:59.006Z,23.90
2023-05-22T22:11:26.630Z,23.90
2023-05-22T22:13:54.105Z,23.80
2023-05-22T22:16:22.213Z,23.80
2023-05-22T22:18:50.326Z,23.70
2023-05-22T22:21:17.564Z,23.70
2023-05-22T22:23:44.593Z,23.70
2023-05-22T22:26:12.762Z,23.60
2023-05-22T22:28:39.684Z,23.60
2023-05-22T22:31:06.704Z,23.60
2023-05-22T22:33:33.672Z,23.50
2023-05-22T22:36:00.800Z,23.50
2023-05-22T22:38:27.989Z,23.40
2023-05-22T22:40:54.946Z,23.40
2023-05-22T22:43:21.957Z,23.40
2023-05-22T22:45:49.002Z,23.30
2023-05-22T22:48:16.693Z,23.30
2023-05-22T22:50:44.063Z,23.30
2023-05-22T22:53:11.149Z,23.30
2023-05-22T22:55:38.535Z,23.30
2023-05-22T22:58:06.762Z,23.20
2023-05-22T23:00:33.667Z,23.20
2023-05-22T23:03:00.767Z,23.30
2023-05-22T23:05:27.895Z,23.20
2023-05-22T23:07:54.936Z,23.20
2023-05-22T23:10:22.373Z,23.20
2023-05-22T23:12:50.057Z,23.20
2023-05-22T23:15:17.203Z,23.20
2023-05-22T23:17:44.265Z,23.10
2023-05-22T23:20:11.443Z,23.10
2023-05-22T23:22:38.479Z,23.10
2023-05-22T23:25:06.107Z,23.00
2023-05-22T23:27:33.073Z,23.00
2023-05-22T23:30:00.169Z,23.00
2023-05-22T23:32:27.159Z,23.00
2023-05-22T23:34:54.177Z,22.90
2023-05-22T23:37:21.139Z,22.90
2023-05-22T23:39:48.265Z,22.80
2023-05-22T23:42:16.929Z,22.80
2023-05-22T23:44:43.870Z,22.80
2023-05-22T23:47:10.931Z,22.70
2023-05-22T23:49:37.871Z,22.60
2023-05-22T23:52:04.980Z,22.60
2023-05-22T23:54:32.003Z,22.60
2023-05-22T23:56:58.962Z,22.60
2023-05-22T23:59:25.962Z,22.60
